Bonito, Brazil
Current Conditions -  °F | °C
As of 3:00 AM on Wednesday 26 Nov 2014 (Local Time) from SBRF Reporting Station
Rain Showers Rain Showers  
Wind Chill: 77°   Ceiling: 2000
Heat Index: 78°   Visibility: 5mi
Dew Point: 72°   Wind: 8mph
Humidity: 83%   Direction: 90°E
Pressure: 29.85"   Gusts: NA
Location:  8.47°S, 35.73°W
Report Text: SBRF 260600Z 09007KT 8000 VCSH FEW013 BKN020 BKN060 25/22 Q1011
Loading
Personal Weather Stations






























Interactive Weather Map New forecast layout! Learn more

10-Day Weather Forecast

Advertisements
Track Severe Weather on mobile